createdAt,value
2022-12-12T00:02:08.204Z,13.02
2022-12-12T00:04:34.738Z,14.05
2022-12-12T00:07:01.088Z,12.43
2022-12-12T00:09:27.432Z,12.35
2022-12-12T00:11:53.863Z,13.73
2022-12-12T00:14:20.336Z,13.07
2022-12-12T00:16:46.665Z,14.68
2022-12-12T00:19:13.161Z,14.10
2022-12-12T00:21:39.550Z,12.27
2022-12-12T00:24:06.861Z,13.93
2022-12-12T00:26:34.816Z,13.18
2022-12-12T00:29:02.566Z,12.75
2022-12-12T00:31:29.177Z,12.85
2022-12-12T00:33:56.547Z,12.82
2022-12-12T00:36:29.423Z,11.93
2022-12-12T00:38:56.917Z,13.35
2022-12-12T00:41:24.158Z,13.23
2022-12-12T00:43:51.253Z,12.68
2022-12-12T00:46:20.735Z,13.52
2022-12-12T00:48:47.710Z,12.25
2022-12-12T00:51:18.298Z,13.65
2022-12-12T00:53:45.145Z,13.93
2022-12-12T00:56:11.809Z,12.63
2022-12-12T00:58:38.207Z,14.05
2022-12-12T01:01:12.914Z,13.82
2022-12-12T01:03:41.416Z,12.05
2022-12-12T01:06:08.679Z,11.90
2022-12-12T01:08:35.199Z,11.68
2022-12-12T01:11:01.537Z,12.68
2022-12-12T01:13:28.292Z,12.35
2022-12-12T01:15:54.660Z,13.88
2022-12-12T01:18:21.402Z,13.10
2022-12-12T01:20:47.824Z,12.13
2022-12-12T01:23:14.368Z,20.92
2022-12-12T01:25:41.356Z,18.90
2022-12-12T01:28:08.042Z,13.57
2022-12-12T01:30:34.512Z,13.45
2022-12-12T01:33:00.891Z,13.50
2022-12-12T01:35:27.649Z,15.80
2022-12-12T01:37:54.265Z,17.45
2022-12-12T01:40:24.466Z,13.63
2022-12-12T01:42:51.162Z,11.40
2022-12-12T01:45:55.155Z,11.77
2022-12-12T01:48:23.486Z,14.18
2022-12-12T01:50:50.711Z,14.23
2022-12-12T01:53:19.264Z,12.45
2022-12-12T01:55:48.010Z,11.48
2022-12-12T01:58:15.297Z,12.27
2022-12-12T02:00:42.172Z,13.30
2022-12-12T02:03:09.206Z,13.10
2022-12-12T02:05:51.408Z,12.32
2022-12-12T02:08:21.103Z,12.38
2022-12-12T02:10:47.833Z,11.75
2022-12-12T02:13:19.451Z,10.75
2022-12-12T02:16:09.840Z,11.20
2022-12-12T02:18:56.993Z,11.10
2022-12-12T02:21:42.124Z,11.88
2022-12-12T02:24:14.443Z,12.40
2022-12-12T02:26:49.871Z,10.60
2022-12-12T02:29:31.497Z,12.35
2022-12-12T02:32:32.389Z,11.88
2022-12-12T02:35:20.161Z,11.93
2022-12-12T02:38:07.389Z,12.02
2022-12-12T02:40:48.837Z,10.82
2022-12-12T02:43:40.165Z,11.18
2022-12-12T02:46:18.350Z,11.93
2022-12-12T02:48:54.365Z,11.52
2022-12-12T02:51:21.507Z,11.40
2022-12-12T02:53:47.938Z,11.80
2022-12-12T02:56:44.708Z,13.27
2022-12-12T02:59:17.485Z,12.32
2022-12-12T03:02:12.677Z,11.55
2022-12-12T03:05:08.290Z,11.77
2022-12-12T03:08:04.187Z,12.98
2022-12-12T03:10:30.755Z,10.63
2022-12-12T03:13:06.239Z,12.52
2022-12-12T03:15:57.535Z,11.85
2022-12-12T03:18:36.570Z,12.73
2022-12-12T03:21:10.411Z,13.32
2022-12-12T03:23:44.974Z,11.85
2022-12-12T03:26:19.120Z,11.05
2022-12-12T03:28:50.828Z,11.30
2022-12-12T03:31:22.622Z,10.38
2022-12-12T03:33:55.754Z,11.27
2022-12-12T03:36:29.279Z,12.93
2022-12-12T03:39:06.059Z,12.05
2022-12-12T03:41:40.682Z,11.50
2022-12-12T03:44:21.065Z,12.57
2022-12-12T03:47:01.728Z,11.05
2022-12-12T03:49:35.478Z,11.93
2022-12-12T03:52:10.579Z,12.25
2022-12-12T03:54:42.536Z,12.13
2022-12-12T03:57:20.313Z,10.93
2022-12-12T04:00:08.407Z,11.27
2022-12-12T04:02:51.786Z,10.02
2022-12-12T04:05:36.786Z,11.60
2022-12-12T04:08:13.200Z,12.20
2022-12-12T04:11:06.168Z,11.57
2022-12-12T04:13:54.037Z,10.48
2022-12-12T04:16:28.373Z,10.02
2022-12-12T04:18:58.310Z,10.95
2022-12-12T04:22:01.900Z,10.38
2022-12-12T04:24:35.839Z,11.55
2022-12-12T04:27:08.926Z,11.63
2022-12-12T04:29:35.277Z,10.65
2022-12-12T04:32:17.792Z,11.25
2022-12-12T04:35:11.725Z,11.02
2022-12-12T04:37:47.014Z,10.57
2022-12-12T04:42:51.447Z,11.15
2022-12-12T04:45:21.970Z,11.50
2022-12-12T04:47:52.149Z,9.45
2022-12-12T04:50:22.002Z,10.05
2022-12-12T04:52:50.796Z,9.52
2022-12-12T04:55:34.013Z,8.82
2022-12-12T04:58:02.210Z,10.57
2022-12-12T05:00:36.697Z,10.20
2022-12-12T05:03:24.714Z,9.23
2022-12-12T05:05:59.541Z,10.25
2022-12-12T05:08:42.882Z,8.73
2022-12-12T05:11:11.078Z,9.43
2022-12-12T05:13:40.504Z,9.50
2022-12-12T05:16:25.573Z,8.57
2022-12-12T05:18:52.010Z,10.68
2022-12-12T05:21:18.638Z,8.85
2022-12-12T05:23:45.235Z,11.25
2022-12-12T05:26:32.142Z,10.27
2022-12-12T05:29:05.232Z,9.45
2022-12-12T05:34:03.728Z,10.55
2022-12-12T05:36:30.362Z,9.85
2022-12-12T05:38:57.698Z,10.02
2022-12-12T05:41:24.148Z,9.63
2022-12-12T05:43:50.550Z,9.50
2022-12-12T05:46:17.106Z,10.23
2022-12-12T05:48:44.431Z,9.75
2022-12-12T05:51:10.839Z,12.00
2022-12-12T05:53:42.858Z,9.25
2022-12-12T05:56:11.460Z,9.98
2022-12-12T05:58:39.230Z,10.18
2022-12-12T06:01:06.619Z,9.98
2022-12-12T06:03:33.301Z,9.73
2022-12-12T06:06:00.353Z,10.25
2022-12-12T06:08:26.848Z,10.38
2022-12-12T06:10:53.290Z,9.73
2022-12-12T06:13:19.667Z,8.77
2022-12-12T06:15:46.186Z,9.35
2022-12-12T06:18:12.616Z,9.30
2022-12-12T06:20:39.003Z,8.60
2022-12-12T06:23:05.644Z,9.13
2022-12-12T06:25:32.020Z,9.93
2022-12-12T06:27:59.217Z,9.20
2022-12-12T06:30:26.110Z,8.15
2022-12-12T06:32:52.602Z,9.75
2022-12-12T06:35:19.048Z,10.13
2022-12-12T06:37:45.487Z,11.27
2022-12-12T06:40:12.573Z,9.63
2022-12-12T06:42:43.217Z,9.45
2022-12-12T06:45:13.073Z,9.23
2022-12-12T06:47:40.174Z,10.50
2022-12-12T06:50:06.906Z,10.98
2022-12-12T06:52:33.332Z,9.75
2022-12-12T06:54:59.787Z,8.18
2022-12-12T06:57:26.953Z,8.75
2022-12-12T06:59:53.366Z,11.75
2022-12-12T07:02:23.254Z,8.88
2022-12-12T07:04:55.322Z,9.25
2022-12-12T07:07:21.728Z,9.10
2022-12-12T07:09:48.275Z,9.63
2022-12-12T07:12:14.832Z,9.45
2022-12-12T07:14:41.248Z,8.95
2022-12-12T07:17:07.681Z,9.52
2022-12-12T07:19:34.126Z,9.23
2022-12-12T07:22:05.724Z,9.57
2022-12-12T07:24:35.816Z,9.85
2022-12-12T07:27:02.232Z,9.98
2022-12-12T07:29:28.699Z,8.70
2022-12-12T07:31:55.131Z,8.57
2022-12-12T07:34:21.560Z,8.50
2022-12-12T07:36:48.031Z,9.05
2022-12-12T07:39:20.164Z,9.80
2022-12-12T07:41:47.259Z,8.95
2022-12-12T07:44:13.676Z,8.55
2022-12-12T07:46:40.142Z,9.55
2022-12-12T07:49:06.875Z,9.95
2022-12-12T07:51:33.361Z,9.02
2022-12-12T07:53:59.790Z,9.48
2022-12-12T07:56:26.182Z,10.15
2022-12-12T07:58:53.509Z,9.68
2022-12-12T08:01:23.392Z,9.77
2022-12-12T08:03:50.237Z,10.02
2022-12-12T08:06:18.040Z,8.80
2022-12-12T08:08:46.332Z,8.10
2022-12-12T08:11:15.607Z,8.65
2022-12-12T08:13:42.854Z,9.07
2022-12-12T08:16:17.446Z,8.35
2022-12-12T08:18:44.313Z,8.50
2022-12-12T08:21:12.895Z,8.20
2022-12-12T08:23:40.387Z,9.25
2022-12-12T08:26:12.569Z,9.15
2022-12-12T08:28:41.342Z,9.75
2022-12-12T08:31:08.780Z,11.60
2022-12-12T08:33:36.643Z,9.52
2022-12-12T08:36:18.466Z,9.27
2022-12-12T08:38:45.435Z,9.90
2022-12-12T08:41:13.146Z,9.68
2022-12-12T08:43:40.468Z,9.55
2022-12-12T08:46:12.301Z,8.68
2022-12-12T08:51:08.756Z,10.02
2022-12-12T08:53:35.276Z,9.52
2022-12-12T08:56:01.794Z,9.82
2022-12-12T08:58:28.184Z,9.75
2022-12-12T09:00:56.690Z,9.45
2022-12-12T09:03:28.942Z,11.07
2022-12-12T09:05:55.992Z,9.77
2022-12-12T09:11:24.374Z,9.25
2022-12-12T09:13:50.835Z,9.52
2022-12-12T09:16:19.862Z,10.55
2022-12-12T09:18:49.370Z,10.15
2022-12-12T09:21:16.193Z,10.77
2022-12-12T09:23:42.590Z,10.68
2022-12-12T09:26:09.834Z,12.50
2022-12-12T09:28:36.513Z,10.80
2022-12-12T09:31:07.864Z,10.40
2022-12-12T09:33:34.891Z,11.52
2022-12-12T09:36:03.709Z,9.88
2022-12-12T09:38:30.440Z,10.57
2022-12-12T09:41:03.768Z,11.65
2022-12-12T09:43:34.762Z,10.30
2022-12-12T09:46:02.936Z,11.15
2022-12-12T09:48:35.571Z,11.82
2022-12-12T09:51:01.977Z,11.60
2022-12-12T09:53:28.956Z,10.85
2022-12-12T09:55:59.913Z,11.35
2022-12-12T09:58:29.355Z,10.18
2022-12-12T10:01:18.262Z,9.93
2022-12-12T10:04:14.741Z,10.75
2022-12-12T10:06:52.825Z,9.57
2022-12-12T10:09:37.667Z,11.15
2022-12-12T10:12:08.626Z,9.80
2022-12-12T10:14:45.688Z,10.45
2022-12-12T10:17:17.621Z,9.63
2022-12-12T10:19:49.120Z,9.55
2022-12-12T10:23:02.255Z,10.13
2022-12-12T10:25:41.724Z,10.55
2022-12-12T10:28:16.751Z,8.35
2022-12-12T10:33:35.791Z,9.30
2022-12-12T10:36:14.267Z,9.38
2022-12-12T10:38:46.537Z,9.35
2022-12-12T10:41:38.530Z,9.60
2022-12-12T10:44:41.763Z,10.18
2022-12-12T10:47:12.810Z,9.60
2022-12-12T10:49:40.057Z,9.55
2022-12-12T10:52:18.866Z,9.25
2022-12-12T10:54:49.132Z,8.30
2022-12-12T10:57:33.667Z,9.15
2022-12-12T11:00:00.264Z,8.63
2022-12-12T11:02:43.886Z,11.15
2022-12-12T11:05:25.096Z,9.13
2022-12-12T11:08:31.292Z,8.85
2022-12-12T11:13:57.200Z,8.82
2022-12-12T11:16:26.817Z,9.05
2022-12-12T11:19:00.845Z,9.45
2022-12-12T11:21:28.330Z,9.10
2022-12-12T11:23:57.351Z,9.93
2022-12-12T11:26:26.682Z,9.32
2022-12-12T11:28:59.306Z,9.85
2022-12-12T11:31:29.459Z,8.98
2022-12-12T11:33:59.267Z,9.52
2022-12-12T11:36:34.398Z,8.60
2022-12-12T11:39:12.944Z,8.35
2022-12-12T11:41:59.699Z,8.32
2022-12-12T11:44:30.804Z,9.52
2022-12-12T11:46:57.223Z,8.32
2022-12-12T11:49:23.648Z,8.90
2022-12-12T11:51:50.003Z,8.45
2022-12-12T11:54:25.384Z,8.27
2022-12-12T11:57:28.430Z,8.40
2022-12-12T12:00:15.295Z,8.77
2022-12-12T12:02:53.557Z,9.07
2022-12-12T12:05:41.303Z,8.77
2022-12-12T12:08:10.714Z,9.73
2022-12-12T12:11:16.083Z,8.18
2022-12-12T12:13:45.470Z,7.57
2022-12-12T12:16:40.996Z,8.32
2022-12-12T12:19:13.939Z,8.73
2022-12-12T12:21:46.909Z,9.20
2022-12-12T12:24:48.624Z,8.38
2022-12-12T12:27:27.443Z,8.77
2022-12-12T12:30:03.024Z,8.93
2022-12-12T12:32:46.522Z,8.07
2022-12-12T12:35:24.246Z,8.23
2022-12-12T12:38:05.673Z,8.25
2022-12-12T12:40:46.222Z,8.68
2022-12-12T12:43:35.954Z,9.48
2022-12-12T12:46:25.988Z,7.82
2022-12-12T12:49:24.199Z,9.07
2022-12-12T12:51:56.605Z,8.23
2022-12-12T12:54:46.566Z,7.85
2022-12-12T12:57:20.214Z,8.73
2022-12-12T12:59:55.030Z,8.00
2022-12-12T13:02:37.229Z,8.75
2022-12-12T13:05:37.091Z,8.13
2022-12-12T13:08:26.794Z,8.98
2022-12-12T13:10:58.910Z,7.28
2022-12-12T13:13:30.633Z,7.43
2022-12-12T13:16:02.502Z,8.15
2022-12-12T13:18:44.560Z,8.90
2022-12-12T13:21:25.904Z,7.38
2022-12-12T13:24:07.841Z,8.25
2022-12-12T13:26:57.464Z,10.52
2022-12-12T13:29:42.468Z,8.90
2022-12-12T13:32:20.990Z,7.47
2022-12-12T13:34:51.360Z,8.57
2022-12-12T13:37:21.963Z,7.80
2022-12-12T13:39:59.515Z,8.20
2022-12-12T13:42:25.954Z,7.68
2022-12-12T13:44:52.391Z,7.60
2022-12-12T13:47:21.848Z,7.47
2022-12-12T13:49:52.644Z,8.13
2022-12-12T13:52:25.054Z,7.03
2022-12-12T13:54:54.728Z,8.10
2022-12-12T13:57:23.896Z,7.65
2022-12-12T13:59:53.119Z,6.50
2022-12-12T14:02:32.322Z,7.43
2022-12-12T14:05:21.385Z,7.43
2022-12-12T14:07:52.917Z,7.82
2022-12-12T14:10:26.703Z,8.98
2022-12-12T14:12:54.903Z,10.18
2022-12-12T14:15:31.352Z,10.95
2022-12-12T14:18:02.670Z,9.95
2022-12-12T14:20:36.254Z,9.85
2022-12-12T14:23:28.029Z,9.10
2022-12-12T14:25:54.953Z,8.35
2022-12-12T14:28:27.451Z,7.85
2022-12-12T14:30:58.802Z,8.02
2022-12-12T14:33:44.067Z,9.55
2022-12-12T14:36:27.570Z,8.25
2022-12-12T14:39:06.095Z,7.60
2022-12-12T14:41:37.496Z,8.75
2022-12-12T14:44:37.938Z,8.85
2022-12-12T14:47:07.579Z,8.77
2022-12-12T14:49:33.974Z,8.07
2022-12-12T14:52:00.511Z,8.15
2022-12-12T14:54:27.337Z,7.40
2022-12-12T14:56:59.026Z,7.43
2022-12-12T14:59:29.668Z,8.50
2022-12-12T15:02:05.226Z,8.55
2022-12-12T15:04:38.302Z,7.25
2022-12-12T15:07:21.231Z,7.10
2022-12-12T15:09:48.963Z,7.50
2022-12-12T15:12:16.713Z,8.38
2022-12-12T15:14:49.454Z,9.10
2022-12-12T15:17:46.742Z,10.30
2022-12-12T15:20:22.765Z,9.13
2022-12-12T15:23:00.371Z,9.98
2022-12-12T15:25:37.265Z,13.10
2022-12-12T15:28:03.837Z,14.93
2022-12-12T15:30:39.407Z,21.80
2022-12-12T15:33:14.938Z,31.10
2022-12-12T15:35:49.886Z,35.97
2022-12-12T15:40:47.878Z,24.35
2022-12-12T15:43:20.132Z,31.95
2022-12-12T15:45:50.157Z,23.40
2022-12-12T15:48:18.955Z,20.42
2022-12-12T15:50:45.856Z,15.45
2022-12-12T15:53:15.274Z,14.80
2022-12-12T15:56:00.430Z,17.58
2022-12-12T15:58:50.748Z,19.75
2022-12-12T16:01:21.940Z,30.75
2022-12-12T16:04:03.492Z,25.20
2022-12-12T16:06:42.013Z,28.15
2022-12-12T16:09:21.763Z,21.13
2022-12-12T16:11:58.775Z,15.90
2022-12-12T16:14:29.655Z,13.95
2022-12-12T16:17:03.461Z,13.85
2022-12-12T16:19:56.427Z,12.02
2022-12-12T16:22:39.439Z,12.18
2022-12-12T16:25:25.788Z,12.75
2022-12-12T16:27:58.676Z,11.27
2022-12-12T16:30:26.449Z,10.65
2022-12-12T16:32:52.946Z,10.30
2022-12-12T16:35:23.240Z,8.27
2022-12-12T16:37:51.159Z,11.23
2022-12-12T16:40:20.173Z,10.63
2022-12-12T16:43:09.355Z,12.23
2022-12-12T16:45:37.483Z,11.52
2022-12-12T16:48:27.239Z,11.95
2022-12-12T16:51:00.642Z,13.40
2022-12-12T16:53:27.140Z,15.35
2022-12-12T16:55:54.651Z,16.90
2022-12-12T16:58:21.429Z,17.05
2022-12-12T17:00:49.015Z,16.13
2022-12-12T17:03:17.029Z,14.05
2022-12-12T17:05:45.256Z,14.32
2022-12-12T17:08:13.014Z,14.00
2022-12-12T17:10:39.443Z,14.00
2022-12-12T17:13:07.667Z,11.38
2022-12-12T17:15:34.444Z,10.18
2022-12-12T17:18:01.318Z,10.52
2022-12-12T17:20:28.691Z,11.80
2022-12-12T17:23:29.353Z,10.63
2022-12-12T17:26:02.843Z,9.95
2022-12-12T17:28:30.496Z,10.57
2022-12-12T17:30:56.908Z,10.85
2022-12-12T17:33:23.286Z,10.60
2022-12-12T17:36:06.254Z,11.35
2022-12-12T17:38:33.596Z,9.43
2022-12-12T17:41:04.779Z,8.73
2022-12-12T17:43:31.179Z,10.27
2022-12-12T17:46:04.068Z,10.35
2022-12-12T17:48:33.792Z,11.00
2022-12-12T17:51:02.779Z,10.88
2022-12-12T17:53:37.681Z,12.13
2022-12-12T17:58:40.359Z,15.23
2022-12-12T18:01:10.366Z,15.30
2022-12-12T18:03:37.227Z,13.95
2022-12-12T18:06:03.903Z,18.23
2022-12-12T18:08:30.345Z,13.05
2022-12-12T18:10:56.994Z,12.98
2022-12-12T18:13:23.541Z,12.70
2022-12-12T18:15:59.262Z,14.73
2022-12-12T18:18:26.943Z,14.35
2022-12-12T18:20:54.036Z,11.23
2022-12-12T18:23:20.555Z,12.93
2022-12-12T18:25:47.008Z,11.32
2022-12-12T18:28:13.685Z,11.43
2022-12-12T18:30:40.659Z,10.52
2022-12-12T18:33:10.406Z,13.55
2022-12-12T18:35:36.867Z,14.38
2022-12-12T18:38:03.521Z,15.88
2022-12-12T18:40:29.924Z,15.20
2022-12-12T18:42:56.358Z,15.15
2022-12-12T18:45:23.982Z,16.48
2022-12-12T18:47:50.722Z,19.35
2022-12-12T18:50:17.232Z,17.60
2022-12-12T18:52:44.009Z,14.93
2022-12-12T18:55:10.452Z,13.55
2022-12-12T18:57:36.908Z,15.30
2022-12-12T19:00:06.744Z,18.42
2022-12-12T19:02:37.483Z,17.17
2022-12-12T19:05:05.848Z,14.80
2022-12-12T19:07:32.499Z,16.17
2022-12-12T19:09:58.924Z,15.75
2022-12-12T19:12:25.344Z,18.80
2022-12-12T19:15:15.890Z,17.10
2022-12-12T19:17:38.349Z,15.00
2022-12-12T19:20:05.124Z,17.65
2022-12-12T19:22:44.867Z,15.10
2022-12-12T19:25:11.725Z,22.83
2022-12-12T19:27:38.154Z,22.92
2022-12-12T19:30:05.403Z,16.35
2022-12-12T19:32:31.787Z,13.85
2022-12-12T19:34:59.622Z,13.05
2022-12-12T19:37:26.034Z,13.80
2022-12-12T19:39:52.921Z,14.13
2022-12-12T19:42:20.126Z,14.32
2022-12-12T19:44:46.499Z,12.68
2022-12-12T19:47:13.307Z,12.98
2022-12-12T19:49:39.838Z,13.10
2022-12-12T19:52:12.148Z,12.27
2022-12-12T19:54:40.314Z,11.97
2022-12-12T19:57:06.718Z,11.63
2022-12-12T19:59:33.334Z,11.35
2022-12-12T20:02:01.023Z,12.98
2022-12-12T20:04:30.273Z,12.38
2022-12-12T20:06:56.954Z,13.05
2022-12-12T20:09:26.753Z,16.17
2022-12-12T20:11:54.677Z,12.10
2022-12-12T20:14:24.319Z,12.32
2022-12-12T20:16:52.122Z,12.15
2022-12-12T20:19:18.978Z,11.13
2022-12-12T20:22:03.566Z,12.52
2022-12-12T20:24:32.236Z,14.32
2022-12-12T20:26:59.710Z,11.77
2022-12-12T20:29:26.420Z,13.55
2022-12-12T20:31:53.013Z,14.10
2022-12-12T20:34:24.504Z,13.40
2022-12-12T20:36:52.269Z,12.65
2022-12-12T20:39:20.796Z,13.52
2022-12-12T20:41:47.895Z,14.40
2022-12-12T20:44:14.592Z,14.68
2022-12-12T20:46:43.546Z,13.45
2022-12-12T20:49:14.650Z,14.38
2022-12-12T20:51:58.026Z,12.57
2022-12-12T20:54:28.083Z,12.50
2022-12-12T20:56:56.228Z,14.07
2022-12-12T20:59:23.593Z,14.40
2022-12-12T21:01:50.332Z,16.42
2022-12-12T21:04:17.109Z,15.18
2022-12-12T21:06:47.887Z,14.13
2022-12-12T21:11:50.981Z,16.08
2022-12-12T21:14:17.657Z,14.02
2022-12-12T21:16:44.178Z,14.77
2022-12-12T21:19:13.677Z,16.95
2022-12-12T21:21:42.535Z,14.48
2022-12-12T21:24:12.152Z,19.00
2022-12-12T21:26:38.895Z,18.88
2022-12-12T21:29:06.007Z,19.95
2022-12-12T21:31:35.202Z,18.55
2022-12-12T21:34:02.145Z,17.50
2022-12-12T21:36:29.342Z,15.50
2022-12-12T21:38:57.509Z,16.58
2022-12-12T21:41:24.683Z,14.48
2022-12-12T21:43:51.701Z,15.10
2022-12-12T21:46:21.077Z,16.25
2022-12-12T21:49:08.176Z,15.27
2022-12-12T21:51:35.352Z,16.75
2022-12-12T21:54:03.204Z,15.75
2022-12-12T21:56:30.222Z,15.75
2022-12-12T21:58:57.084Z,14.88
2022-12-12T22:01:24.199Z,16.63
2022-12-12T22:03:50.810Z,15.07
2022-12-12T22:06:23.209Z,15.25
2022-12-12T22:08:50.228Z,13.27
2022-12-12T22:11:30.972Z,15.60
2022-12-12T22:14:06.384Z,15.55
2022-12-12T22:16:33.578Z,13.98
2022-12-12T22:19:12.041Z,14.27
2022-12-12T22:21:38.440Z,16.67
2022-12-12T22:24:05.270Z,13.65
2022-12-12T22:26:34.605Z,13.60
2022-12-12T22:29:06.023Z,14.52
2022-12-12T22:31:34.969Z,14.00
2022-12-12T22:34:04.670Z,13.88
2022-12-12T22:36:33.628Z,14.55
2022-12-12T22:39:01.034Z,13.18
2022-12-12T22:41:28.858Z,13.50
2022-12-12T22:43:58.170Z,14.52
2022-12-12T22:46:26.250Z,15.25
2022-12-12T22:48:54.717Z,13.27
2022-12-12T22:51:27.707Z,14.07
2022-12-12T22:53:59.178Z,14.05
2022-12-12T22:56:28.550Z,14.85
2022-12-12T22:58:55.081Z,15.63
2022-12-12T23:01:22.717Z,14.77
2022-12-12T23:03:49.180Z,15.02
2022-12-12T23:06:19.184Z,15.52
2022-12-12T23:08:52.920Z,16.55
2022-12-12T23:11:21.071Z,16.27
2022-12-12T23:13:47.679Z,16.38
2022-12-12T23:16:19.433Z,16.50
2022-12-12T23:18:47.746Z,17.05
2022-12-12T23:21:17.638Z,17.77
2022-12-12T23:23:45.120Z,16.00
2022-12-12T23:26:18.356Z,16.52
2022-12-12T23:28:45.344Z,16.23
2022-12-12T23:31:15.018Z,15.23
2022-12-12T23:33:41.614Z,17.52
2022-12-12T23:36:09.591Z,16.88
2022-12-12T23:38:36.840Z,16.40
2022-12-12T23:41:05.074Z,15.48
2022-12-12T23:43:31.838Z,16.10
2022-12-12T23:46:27.800Z,16.48
2022-12-12T23:48:59.481Z,17.92
2022-12-12T23:51:29.432Z,16.75
2022-12-12T23:53:57.693Z,15.85
2022-12-12T23:56:25.160Z,15.52
2022-12-12T23:58:53.589Z,16.50
